Time;durP1;ratioP1;P1;durP2;ratioP2;P2;SDS_P1;SDS_P2;PMS_P1;PMS_P2;Temp;Humidity;BMP_temperature;BMP_pressure;BME280_temperature;BME280_humidity;BME280_pressure;Samples;Min_cycle;Max_cycle;Signal;HPM_P1;HPM_P2
2021/05/12 00:01:44;;;;;;;3.83;3.53;;;;;;;;;;6303263;22;20404;-96
2021/05/12 00:04:17;;;;;;;3.17;2.90;;;;;;;;;;6330819;22;20426;-96
2021/05/12 00:06:44;;;;;;;3.37;2.80;;;;;;;;;;6327830;22;20433;-96
2021/05/12 00:09:10;;;;;;;6.87;3.20;;;;;;;;;;6318541;22;20419;-94
2021/05/12 00:11:36;;;;;;;7.33;3.80;;;;;;;;;;6319423;22;20711;-93
2021/05/12 00:16:59;;;;;;;4.93;4.43;;;;;;;;;;6320019;22;20415;-96
2021/05/12 00:19:26;;;;;;;10.33;5.23;;;;;;;;;;6286538;22;20456;-96
2021/05/12 00:27:17;;;;;;;6.67;5.77;;;;;;;;;;6270747;22;20445;-96
2021/05/12 00:29:44;;;;;;;11.43;5.20;;;;;;;;;;6268679;23;20422;-96
2021/05/12 00:32:19;;;;;;;6.73;4.90;;;;;;;;;;6268375;23;20412;-96
2021/05/12 00:43:43;;;;;;;6.27;4.97;;;;;;;;;;6243023;23;20442;-96
2021/05/12 00:46:14;;;;;;;6.50;6.00;;;;;;;;;;6233291;23;20405;-96
2021/05/12 00:48:41;;;;;;;6.83;6.23;;;;;;;;;;6237784;23;20693;-96
2021/05/12 00:51:15;;;;;;;6.67;6.07;;;;;;;;;;6228099;23;20925;-96
2021/05/12 00:53:57;;;;;;;6.60;6.00;;;;;;;;;;6310783;22;20447;-96
2021/05/12 00:56:24;;;;;;;7.80;7.00;;;;;;;;;;6324026;22;20442;-96
2021/05/12 00:58:50;;;;;;;12.77;9.23;;;;;;;;;;6323523;22;20446;-96
2021/05/12 01:01:17;;;;;;;10.17;9.20;;;;;;;;;;6299419;22;20412;-96
2021/05/12 01:03:44;;;;;;;9.77;8.97;;;;;;;;;;6322650;22;20404;-96
2021/05/12 01:06:21;;;;;;;10.20;9.30;;;;;;;;;;6297642;22;20470;-96
2021/05/12 01:08:47;;;;;;;9.47;8.57;;;;;;;;;;6327346;22;20383;-96
2021/05/12 01:11:13;;;;;;;12.93;8.03;;;;;;;;;;6302101;22;20447;-96
2021/05/12 01:16:23;;;;;;;8.40;7.60;;;;;;;;;;6317379;22;20423;-96
2021/05/12 01:18:49;;;;;;;8.00;7.30;;;;;;;;;;6319256;22;20415;-96
2021/05/12 01:24:12;;;;;;;7.53;6.93;;;;;;;;;;6316108;22;20467;-96
2021/05/12 01:26:40;;;;;;;8.67;7.73;;;;;;;;;;6332719;22;20418;-96
2021/05/12 01:29:07;;;;;;;6.90;6.27;;;;;;;;;;6306750;22;20404;-96
2021/05/12 01:31:34;;;;;;;7.10;6.40;;;;;;;;;;6297073;22;20413;-96
2021/05/12 01:34:01;;;;;;;6.17;5.67;;;;;;;;;;6318792;22;20841;-96
2021/05/12 01:36:30;;;;;;;6.87;6.20;;;;;;;;;;6324606;22;20723;-96
2021/05/12 01:38:56;;;;;;;7.90;6.57;;;;;;;;;;6291952;22;20488;-96
2021/05/12 01:41:34;;;;;;;8.97;7.33;;;;;;;;;;6323846;22;20408;-96
2021/05/12 01:44:08;;;;;;;6.90;6.17;;;;;;;;;;6325636;22;20407;-96
2021/05/12 01:46:34;;;;;;;7.43;6.60;;;;;;;;;;6326719;22;20412;-96
2021/05/12 01:49:06;;;;;;;7.67;6.93;;;;;;;;;;6326828;22;20484;-96
2021/05/12 01:51:32;;;;;;;8.10;6.90;;;;;;;;;;6326458;22;20491;-96
2021/05/12 01:53:58;;;;;;;7.40;6.70;;;;;;;;;;6327707;22;20546;-96
2021/05/12 01:56:25;;;;;;;7.83;7.03;;;;;;;;;;6319037;22;20446;-96
2021/05/12 01:58:52;;;;;;;9.50;7.30;;;;;;;;;;6316363;22;20429;-96
2021/05/12 02:01:18;;;;;;;9.87;7.07;;;;;;;;;;6319876;22;20415;-96
2021/05/12 02:03:44;;;;;;;7.90;7.23;;;;;;;;;;6318996;22;20424;-95
2021/05/12 02:06:10;;;;;;;8.33;7.47;;;;;;;;;;6320205;22;20414;-96
2021/05/12 02:08:36;;;;;;;8.20;7.40;;;;;;;;;;6317409;22;20419;-96
2021/05/12 02:11:04;;;;;;;7.50;6.07;;;;;;;;;;6317736;22;20418;-96
2021/05/12 02:16:14;;;;;;;7.77;6.23;;;;;;;;;;6315958;22;20471;-96
2021/05/12 02:18:42;;;;;;;11.07;8.53;;;;;;;;;;6296428;22;21119;-96
2021/05/12 02:21:08;;;;;;;14.50;13.20;;;;;;;;;;6329556;22;20422;-96
2021/05/12 02:23:34;;;;;;;15.37;13.87;;;;;;;;;;6268648;22;20452;-96
2021/05/12 02:26:02;;;;;;;16.20;14.60;;;;;;;;;;6327157;22;20411;-96
2021/05/12 02:28:31;;;;;;;13.30;12.10;;;;;;;;;;6328347;22;20416;-96
2021/05/12 02:30:59;;;;;;;16.10;14.60;;;;;;;;;;6322437;22;20412;-96
2021/05/12 02:33:28;;;;;;;14.93;13.53;;;;;;;;;;6330222;22;20526;-96
2021/05/12 02:35:54;;;;;;;13.27;12.17;;;;;;;;;;6326254;22;20444;-96
2021/05/12 02:38:20;;;;;;;12.30;11.20;;;;;;;;;;6322417;22;20484;-96
2021/05/12 02:40:46;;;;;;;12.47;10.77;;;;;;;;;;6318237;22;20412;-96
2021/05/12 02:43:14;;;;;;;12.10;10.10;;;;;;;;;;6330948;22;20438;-96
2021/05/12 02:45:40;;;;;;;11.70;10.53;;;;;;;;;;6329024;22;20454;-96
2021/05/12 02:48:09;;;;;;;12.03;10.30;;;;;;;;;;6331871;22;20430;-96
2021/05/12 02:50:38;;;;;;;11.83;9.50;;;;;;;;;;6301534;22;20411;-96
2021/05/12 02:53:05;;;;;;;14.73;10.20;;;;;;;;;;6323550;22;20434;-95
2021/05/12 02:55:31;;;;;;;10.90;9.37;;;;;;;;;;6319052;22;20455;-96
2021/05/12 02:57:58;;;;;;;11.40;9.90;;;;;;;;;;6327027;22;20911;-96
2021/05/12 03:06:11;;;;;;;11.17;10.07;;;;;;;;;;6325417;22;20404;-96
2021/05/12 03:08:39;;;;;;;12.70;9.57;;;;;;;;;;6324676;22;20476;-96
2021/05/12 03:11:05;;;;;;;10.50;9.33;;;;;;;;;;6326206;22;20488;-96
2021/05/12 03:13:31;;;;;;;10.60;9.57;;;;;;;;;;6320933;22;20424;-96
2021/05/12 03:15:57;;;;;;;10.63;9.63;;;;;;;;;;6318136;22;20431;-96
2021/05/12 03:18:26;;;;;;;10.50;9.50;;;;;;;;;;6318780;22;20404;-96
2021/05/12 03:20:52;;;;;;;10.50;9.43;;;;;;;;;;6320767;22;20407;-96
2021/05/12 03:23:19;;;;;;;9.50;8.70;;;;;;;;;;6319810;22;20419;-96
2021/05/12 03:25:45;;;;;;;9.43;8.60;;;;;;;;;;6319377;22;20412;-96
2021/05/12 03:28:11;;;;;;;11.10;8.90;;;;;;;;;;6320166;22;20407;-96
2021/05/12 03:30:39;;;;;;;10.10;9.03;;;;;;;;;;6330019;22;20423;-96
2021/05/12 03:35:57;;;;;;;11.47;9.10;;;;;;;;;;6318300;22;20414;-96
2021/05/12 03:41:22;;;;;;;9.33;8.33;;;;;;;;;;6332784;22;20436;-96
2021/05/12 03:43:58;;;;;;;8.80;8.10;;;;;;;;;;6326835;22;20395;-96
2021/05/12 03:46:32;;;;;;;9.47;8.57;;;;;;;;;;6324629;22;20399;-96
2021/05/12 03:48:58;;;;;;;10.00;8.70;;;;;;;;;;6308823;22;20403;-96
2021/05/12 03:51:27;;;;;;;9.93;8.73;;;;;;;;;;6305724;22;20404;-96
2021/05/12 03:53:54;;;;;;;11.03;9.47;;;;;;;;;;6329856;22;20427;-96
2021/05/12 03:56:20;;;;;;;12.30;10.60;;;;;;;;;;6322314;22;20415;-95
2021/05/12 03:58:46;;;;;;;11.53;10.40;;;;;;;;;;6317490;22;20408;-95
2021/05/12 04:01:12;;;;;;;12.80;9.97;;;;;;;;;;6319082;22;20438;-96
2021/05/12 04:03:38;;;;;;;11.83;10.50;;;;;;;;;;6319256;22;20451;-96
2021/05/12 04:06:04;;;;;;;14.77;13.27;;;;;;;;;;6322388;22;20404;-96
2021/05/12 04:13:55;;;;;;;28.67;25.88;;;;;;;;;;6300579;22;20457;-96
2021/05/12 04:16:21;;;;;;;20.63;18.73;;;;;;;;;;6303403;22;20170;-96
2021/05/12 04:18:48;;;;;;;20.60;18.60;;;;;;;;;;6304608;22;20397;-96
2021/05/12 04:21:15;;;;;;;25.03;22.20;;;;;;;;;;6282403;22;21455;-96
2021/05/12 04:26:22;;;;;;;23.63;21.53;;;;;;;;;;6331099;22;20477;-96
2021/05/12 04:28:56;;;;;;;22.30;19.40;;;;;;;;;;6333715;22;20422;-96
2021/05/12 04:34:29;;;;;;;22.00;18.13;;;;;;;;;;6323806;22;20443;-96
2021/05/12 04:37:01;;;;;;;18.27;16.47;;;;;;;;;;6327378;22;20470;-96
2021/05/12 04:39:29;;;;;;;19.23;17.23;;;;;;;;;;6316383;22;20411;-96
2021/05/12 04:41:55;;;;;;;19.43;17.63;;;;;;;;;;6327259;22;20396;-96
2021/05/12 04:44:22;;;;;;;23.00;20.60;;;;;;;;;;6322849;22;20392;-96
2021/05/12 04:46:50;;;;;;;22.80;20.70;;;;;;;;;;6329625;22;20408;-96
2021/05/12 04:49:40;;;;;;;24.43;22.27;;;;;;;;;;6333456;22;20400;-96
2021/05/12 04:52:10;;;;;;;24.10;21.90;;;;;;;;;;6327130;22;20472;-96
2021/05/12 04:54:36;;;;;;;22.67;20.47;;;;;;;;;;6331994;22;20451;-96
2021/05/12 04:57:03;;;;;;;23.27;21.20;;;;;;;;;;6300573;22;20392;-96
2021/05/12 04:59:29;;;;;;;25.40;23.17;;;;;;;;;;6330346;22;20452;-96
2021/05/12 05:01:56;;;;;;;22.80;20.37;;;;;;;;;;6326282;22;20412;-96
2021/05/12 05:04:23;;;;;;;23.13;20.93;;;;;;;;;;6334848;22;20411;-96
2021/05/12 05:06:50;;;;;;;30.90;27.67;;;;;;;;;;6331074;22;20447;-96
2021/05/12 05:14:50;;;;;;;28.03;25.63;;;;;;;;;;6305693;22;20459;-96
2021/05/12 05:17:17;;;;;;;29.70;23.50;;;;;;;;;;6332195;22;20475;-96
2021/05/12 05:22:16;;;;;;;25.97;23.57;;;;;;;;;;6228827;23;20431;-96
2021/05/12 05:24:42;;;;;;;25.47;23.00;;;;;;;;;;6235213;23;20425;-96
2021/05/12 05:27:09;;;;;;;30.20;20.77;;;;;;;;;;6234177;23;20406;-95
2021/05/12 05:32:00;;;;;;;21.67;18.20;;;;;;;;;;6308292;22;20552;-95
2021/05/12 05:34:26;;;;;;;18.97;17.00;;;;;;;;;;6315466;22;20204;-94
2021/05/12 05:36:52;;;;;;;19.27;17.33;;;;;;;;;;6315010;22;20468;-96
2021/05/12 05:39:18;;;;;;;22.87;20.70;;;;;;;;;;6317069;22;20461;-96
2021/05/12 05:41:44;;;;;;;21.97;19.27;;;;;;;;;;6316852;22;20410;-95
2021/05/12 05:44:10;;;;;;;20.50;18.60;;;;;;;;;;6316515;22;20431;-95
2021/05/12 05:46:36;;;;;;;18.30;16.47;;;;;;;;;;6317435;22;20457;-96
2021/05/12 05:49:03;;;;;;;16.83;15.13;;;;;;;;;;6315197;22;20406;-96
2021/05/12 05:51:30;;;;;;;13.67;12.33;;;;;;;;;;6315981;22;20408;-96
2021/05/12 05:53:56;;;;;;;14.10;11.63;;;;;;;;;;6313194;22;20440;-95
2021/05/12 05:56:22;;;;;;;12.77;11.57;;;;;;;;;;6315302;22;20411;-95
2021/05/12 05:58:48;;;;;;;14.43;11.47;;;;;;;;;;6315668;22;20404;-94
2021/05/12 06:01:14;;;;;;;14.80;10.80;;;;;;;;;;6312996;22;20412;-96
2021/05/12 06:03:40;;;;;;;11.83;10.27;;;;;;;;;;6316530;22;20431;-95
2021/05/12 06:12:18;;;;;;;11.07;7.60;;;;;;;;;;6333627;22;20448;-96
2021/05/12 06:14:44;;;;;;;8.10;7.30;;;;;;;;;;6323159;22;20441;-96
2021/05/12 06:17:12;;;;;;;8.37;7.70;;;;;;;;;;6324504;22;20469;-96
2021/05/12 06:19:38;;;;;;;8.20;7.30;;;;;;;;;;6325614;22;20467;-96
2021/05/12 06:22:04;;;;;;;9.47;8.00;;;;;;;;;;6320003;22;20427;-96
2021/05/12 06:24:30;;;;;;;8.73;7.87;;;;;;;;;;6316786;22;20429;-96
2021/05/12 06:26:57;;;;;;;11.87;7.33;;;;;;;;;;6318108;22;20404;-96
2021/05/12 06:29:24;;;;;;;8.10;7.37;;;;;;;;;;6317814;22;20417;-95
2021/05/12 06:31:50;;;;;;;8.57;7.70;;;;;;;;;;6321108;22;20456;-96
2021/05/12 06:34:16;;;;;;;7.57;6.77;;;;;;;;;;6317380;22;20440;-93
2021/05/12 06:36:42;;;;;;;8.70;6.80;;;;;;;;;;6318954;22;20431;-96
2021/05/12 06:39:08;;;;;;;6.50;5.90;;;;;;;;;;6313064;22;20408;-96
2021/05/12 06:41:34;;;;;;;6.90;6.30;;;;;;;;;;6317845;22;20398;-96
2021/05/12 06:44:00;;;;;;;6.97;6.10;;;;;;;;;;6317838;22;20508;-95
2021/05/12 06:46:27;;;;;;;6.97;6.40;;;;;;;;;;6315389;22;20920;-96
2021/05/12 06:48:54;;;;;;;7.33;6.63;;;;;;;;;;6317198;22;20436;-96
2021/05/12 06:51:20;;;;;;;9.63;6.57;;;;;;;;;;6319226;22;20415;-94
2021/05/12 06:53:47;;;;;;;6.67;6.00;;;;;;;;;;6317236;22;21305;-94
2021/05/12 06:56:14;;;;;;;6.80;6.17;;;;;;;;;;6318778;22;20481;-94
2021/05/12 06:58:44;;;;;;;6.23;5.37;;;;;;;;;;6314707;22;20450;-96
2021/05/12 07:01:12;;;;;;;6.77;4.90;;;;;;;;;;6316516;22;20538;-96
2021/05/12 07:03:40;;;;;;;5.07;4.57;;;;;;;;;;6318555;22;20486;-94
2021/05/12 07:06:16;;;;;;;4.80;4.30;;;;;;;;;;6325651;22;20453;-95
2021/05/12 07:08:49;;;;;;;6.17;4.17;;;;;;;;;;6333140;22;20399;-96
2021/05/12 07:11:25;;;;;;;8.93;5.07;;;;;;;;;;6324251;22;20484;-96
2021/05/12 07:19:33;;;;;;;6.73;4.50;;;;;;;;;;6270318;22;20453;-96
2021/05/12 07:39:12;;;;;;;4.63;4.30;;;;;;;;;;6281447;22;20463;-96
2021/05/12 07:44:54;;;;;;;5.40;4.00;;;;;;;;;;6328797;22;20483;-96
2021/05/12 07:47:31;;;;;;;6.10;3.70;;;;;;;;;;6326032;22;20474;-96
2021/05/12 07:49:59;;;;;;;5.27;4.20;;;;;;;;;;6334283;22;20412;-96
2021/05/12 07:55:13;;;;;;;6.67;4.53;;;;;;;;;;6320538;22;20448;-96
2021/05/12 07:57:44;;;;;;;4.50;3.80;;;;;;;;;;6328160;22;20396;-95
2021/05/12 08:00:16;;;;;;;7.03;3.90;;;;;;;;;;6326832;22;20405;-96
2021/05/12 08:02:46;;;;;;;15.33;4.87;;;;;;;;;;6326331;22;20400;-96
2021/05/12 08:05:13;;;;;;;4.23;3.83;;;;;;;;;;6329895;22;20431;-96
2021/05/12 08:10:20;;;;;;;4.20;3.90;;;;;;;;;;6263579;23;20429;-96
2021/05/12 08:12:47;;;;;;;4.93;3.80;;;;;;;;;;6261337;22;20414;-95
2021/05/12 08:15:23;;;;;;;4.10;3.80;;;;;;;;;;6259868;23;20935;-96
2021/05/12 08:17:52;;;;;;;5.60;3.40;;;;;;;;;;6261345;23;20406;-96
2021/05/12 08:20:18;;;;;;;3.50;3.27;;;;;;;;;;6257432;23;20624;-94
2021/05/12 08:22:46;;;;;;;4.90;3.50;;;;;;;;;;6258283;23;20421;-96
2021/05/12 08:25:12;;;;;;;3.73;3.40;;;;;;;;;;6259613;23;20402;-96
2021/05/12 08:30:15;;;;;;;4.00;3.70;;;;;;;;;;6293101;22;20436;-96
2021/05/12 08:32:41;;;;;;;3.80;3.20;;;;;;;;;;6312814;22;20458;-95
2021/05/12 08:35:09;;;;;;;3.77;3.47;;;;;;;;;;6320960;22;20451;-93
2021/05/12 08:37:35;;;;;;;5.83;3.47;;;;;;;;;;6327059;22;20395;-96
2021/05/12 08:40:08;;;;;;;3.67;3.37;;;;;;;;;;6324196;22;20396;-96
2021/05/12 08:42:44;;;;;;;4.07;3.73;;;;;;;;;;6325551;22;20418;-96
2021/05/12 08:45:14;;;;;;;3.87;3.57;;;;;;;;;;6291240;22;20401;-96
2021/05/12 08:47:43;;;;;;;4.77;3.23;;;;;;;;;;6326014;22;20405;-96
2021/05/12 08:50:13;;;;;;;6.43;3.17;;;;;;;;;;6324550;22;20413;-96
2021/05/12 08:52:41;;;;;;;5.47;3.30;;;;;;;;;;6326821;22;20415;-94
2021/05/12 08:55:10;;;;;;;7.43;3.20;;;;;;;;;;6328540;22;20487;-96
2021/05/12 08:57:36;;;;;;;3.80;3.10;;;;;;;;;;6330496;22;20404;-95
2021/05/12 09:00:12;;;;;;;4.83;3.50;;;;;;;;;;6326758;22;20428;-96
2021/05/12 09:03:06;;;;;;;3.77;3.40;;;;;;;;;;6326896;22;20752;-96
2021/05/12 09:05:44;;;;;;;5.73;3.37;;;;;;;;;;6328319;22;20422;-96
2021/05/12 09:08:11;;;;;;;6.40;3.37;;;;;;;;;;6319871;22;20387;-96
2021/05/12 09:10:39;;;;;;;6.27;3.47;;;;;;;;;;6329834;22;20404;-96
2021/05/12 09:13:29;;;;;;;4.23;3.47;;;;;;;;;;6329994;22;20435;-96
2021/05/12 09:16:16;;;;;;;4.27;2.97;;;;;;;;;;6299895;22;20455;-96
2021/05/12 09:18:53;;;;;;;5.20;3.30;;;;;;;;;;6327550;22;20470;-96
2021/05/12 09:21:24;;;;;;;3.20;3.00;;;;;;;;;;6292060;22;20459;-95
2021/05/12 09:23:51;;;;;;;5.03;4.47;;;;;;;;;;6319806;22;20418;-96
2021/05/12 09:26:18;;;;;;;3.80;3.37;;;;;;;;;;6325225;22;20382;-96
2021/05/12 09:31:35;;;;;;;3.70;2.90;;;;;;;;;;6326665;22;20429;-94
2021/05/12 09:34:01;;;;;;;9.37;3.50;;;;;;;;;;6329663;22;20460;-96
2021/05/12 09:39:45;;;;;;;2.93;2.73;;;;;;;;;;6330380;22;20430;-96
2021/05/12 09:42:21;;;;;;;5.23;3.17;;;;;;;;;;6332231;22;20411;-96
2021/05/12 09:45:13;;;;;;;5.33;2.80;;;;;;;;;;6323117;22;20403;-95
2021/05/12 09:47:42;;;;;;;6.40;3.00;;;;;;;;;;6326643;22;20482;-96
2021/05/12 09:50:37;;;;;;;3.77;3.47;;;;;;;;;;6329074;22;20434;-96
2021/05/12 09:53:04;;;;;;;4.90;3.60;;;;;;;;;;6321752;22;20433;-95
2021/05/12 09:55:45;;;;;;;3.13;2.93;;;;;;;;;;6326061;22;20447;-96
2021/05/12 09:58:56;;;;;;;4.00;3.00;;;;;;;;;;6325450;22;20427;-96
2021/05/12 10:01:37;;;;;;;5.43;3.50;;;;;;;;;;6324961;22;20407;-96
2021/05/12 10:04:19;;;;;;;4.00;3.40;;;;;;;;;;6323147;22;20403;-95
2021/05/12 10:06:45;;;;;;;5.30;3.00;;;;;;;;;;6324425;22;20404;-96
2021/05/12 10:09:22;;;;;;;5.60;3.33;;;;;;;;;;6323291;22;20412;-93
2021/05/12 10:12:16;;;;;;;3.93;3.30;;;;;;;;;;6325885;22;20508;-96
2021/05/12 10:14:56;;;;;;;28.33;4.63;;;;;;;;;;6313289;22;20436;-96
2021/05/12 10:17:32;;;;;;;7.50;3.37;;;;;;;;;;6325136;22;20491;-95
2021/05/12 10:19:59;;;;;;;11.53;3.10;;;;;;;;;;6327032;22;20403;-94
2021/05/12 10:22:28;;;;;;;5.97;3.13;;;;;;;;;;6323473;22;20414;-96
2021/05/12 10:24:57;;;;;;;4.33;3.37;;;;;;;;;;6329434;22;20401;-95
2021/05/12 10:27:30;;;;;;;4.53;3.53;;;;;;;;;;6315957;22;20462;-96
2021/05/12 10:32:50;;;;;;;3.87;3.20;;;;;;;;;;6268008;22;20884;-96
2021/05/12 10:35:45;;;;;;;6.40;3.13;;;;;;;;;;6324511;22;20515;-95
2021/05/12 10:41:31;;;;;;;3.40;3.10;;;;;;;;;;6321765;22;20448;-95
2021/05/12 10:50:02;;;;;;;5.90;3.10;;;;;;;;;;6331674;22;20431;-96
2021/05/12 10:52:29;;;;;;;3.63;3.37;;;;;;;;;;6316507;22;20469;-96
2021/05/12 10:55:24;;;;;;;4.23;3.03;;;;;;;;;;6329408;22;20450;-96
2021/05/12 11:07:20;;;;;;;3.67;3.30;;;;;;;;;;6305074;22;20432;-95
2021/05/12 11:09:55;;;;;;;4.80;3.30;;;;;;;;;;6233196;23;20403;-96
2021/05/12 11:12:34;;;;;;;3.80;3.57;;;;;;;;;;6319599;22;20412;-96
2021/05/12 11:15:05;;;;;;;3.93;3.53;;;;;;;;;;6332185;22;20455;-93
2021/05/12 11:20:12;;;;;;;5.23;3.20;;;;;;;;;;6281044;22;20452;-96
2021/05/12 11:34:08;;;;;;;5.13;3.40;;;;;;;;;;6333663;22;20444;-96
2021/05/12 11:39:46;;;;;;;4.33;3.37;;;;;;;;;;6329561;22;20457;-95
2021/05/12 11:42:22;;;;;;;3.80;3.50;;;;;;;;;;6321473;22;20453;-96
2021/05/12 11:47:58;;;;;;;6.73;4.10;;;;;;;;;;6324269;22;20403;-96
2021/05/12 11:50:25;;;;;;;4.17;3.80;;;;;;;;;;6324316;22;20407;-93
2021/05/12 11:53:04;;;;;;;4.00;3.60;;;;;;;;;;6325639;22;20400;-95
2021/05/12 11:55:34;;;;;;;5.47;4.27;;;;;;;;;;6318979;22;21311;-95
2021/05/12 11:58:08;;;;;;;4.90;4.07;;;;;;;;;;6324929;22;20435;-96
2021/05/12 12:01:04;;;;;;;4.90;3.67;;;;;;;;;;6326401;22;20411;-96
2021/05/12 12:03:31;;;;;;;9.23;4.03;;;;;;;;;;6326882;22;20456;-95
2021/05/12 12:06:03;;;;;;;6.70;3.60;;;;;;;;;;6324358;22;20396;-96
2021/05/12 12:08:34;;;;;;;5.87;3.40;;;;;;;;;;6324567;22;20392;-96
2021/05/12 12:11:23;;;;;;;4.90;3.70;;;;;;;;;;6320227;22;20490;-96
2021/05/12 12:16:30;;;;;;;8.33;4.03;;;;;;;;;;6328127;22;20490;-96
2021/05/12 12:25:11;;;;;;;6.13;3.67;;;;;;;;;;6322191;22;20999;-95
2021/05/12 12:30:18;;;;;;;3.60;3.30;;;;;;;;;;6234508;23;20450;-94
2021/05/12 12:32:50;;;;;;;3.80;3.50;;;;;;;;;;6232571;23;20414;-96
2021/05/12 12:35:25;;;;;;;3.77;3.33;;;;;;;;;;6238003;23;20449;-96
2021/05/12 12:40:31;;;;;;;8.23;3.90;;;;;;;;;;6264981;22;20449;-96
2021/05/12 12:43:02;;;;;;;4.50;3.17;;;;;;;;;;6270560;22;20390;-96
2021/05/12 12:45:31;;;;;;;4.80;3.30;;;;;;;;;;6322588;22;20450;-96
2021/05/12 12:48:01;;;;;;;4.60;3.70;;;;;;;;;;6330365;22;21262;-96
2021/05/12 12:50:36;;;;;;;3.80;3.50;;;;;;;;;;6330411;22;20459;-96
2021/05/12 12:53:29;;;;;;;5.20;3.60;;;;;;;;;;6321771;22;20443;-96
2021/05/12 12:56:12;;;;;;;4.80;3.40;;;;;;;;;;6324392;22;20474;-96
2021/05/12 12:58:43;;;;;;;4.33;3.20;;;;;;;;;;6317476;22;20463;-96
2021/05/12 13:01:30;;;;;;;4.20;3.40;;;;;;;;;;6327054;22;20400;-96
2021/05/12 13:04:11;;;;;;;3.50;3.20;;;;;;;;;;6325474;22;20487;-96
2021/05/12 13:09:31;;;;;;;3.57;3.10;;;;;;;;;;6323453;22;20412;-96
2021/05/12 13:12:34;;;;;;;3.87;3.57;;;;;;;;;;6327822;22;20408;-96
2021/05/12 13:15:21;;;;;;;3.30;2.97;;;;;;;;;;6318708;22;20455;-95
2021/05/12 13:23:43;;;;;;;7.10;3.63;;;;;;;;;;6326384;22;20449;-96
2021/05/12 13:26:32;;;;;;;3.80;3.20;;;;;;;;;;6304429;22;20415;-96
2021/05/12 13:29:01;;;;;;;4.33;3.20;;;;;;;;;;6328896;22;20414;-95
2021/05/12 13:31:29;;;;;;;6.13;3.40;;;;;;;;;;6323810;22;20396;-94
2021/05/12 13:33:58;;;;;;;4.20;3.20;;;;;;;;;;6324880;22;20412;-96
2021/05/12 13:36:24;;;;;;;6.03;3.10;;;;;;;;;;6329381;22;20483;-96
2021/05/12 13:38:54;;;;;;;4.17;3.00;;;;;;;;;;6333221;22;20408;-95
2021/05/12 13:41:20;;;;;;;3.83;3.00;;;;;;;;;;6329029;22;20429;-93
2021/05/12 13:43:48;;;;;;;9.00;3.33;;;;;;;;;;6329525;22;20390;-96
2021/05/12 13:46:17;;;;;;;4.33;3.33;;;;;;;;;;6319958;22;20415;-96
2021/05/12 13:48:46;;;;;;;3.20;2.90;;;;;;;;;;6326904;22;20438;-95
2021/05/12 13:54:35;;;;;;;3.70;3.47;;;;;;;;;;6297175;22;20403;-96
2021/05/12 13:57:16;;;;;;;3.53;3.33;;;;;;;;;;6266536;22;20412;-96
2021/05/12 14:02:52;;;;;;;3.80;3.37;;;;;;;;;;6283954;22;20454;-96
2021/05/12 14:05:36;;;;;;;5.53;3.10;;;;;;;;;;6323822;22;20433;-96
2021/05/12 14:08:03;;;;;;;3.30;2.97;;;;;;;;;;6324307;22;20426;-96
2021/05/12 14:10:47;;;;;;;5.93;3.30;;;;;;;;;;6323735;22;20400;-96
2021/05/12 14:13:24;;;;;;;3.60;3.30;;;;;;;;;;6325342;22;20433;-96
2021/05/12 14:18:50;;;;;;;4.20;3.80;;;;;;;;;;6319874;22;20407;-95
2021/05/12 14:21:23;;;;;;;4.20;3.13;;;;;;;;;;6330135;22;20423;-96
2021/05/12 14:23:56;;;;;;;4.00;3.70;;;;;;;;;;6325345;22;20502;-96
2021/05/12 14:26:23;;;;;;;4.87;3.37;;;;;;;;;;6327103;22;20473;-96
2021/05/12 14:28:54;;;;;;;5.03;4.03;;;;;;;;;;6329275;22;20411;-95
2021/05/12 14:36:54;;;;;;;5.10;3.53;;;;;;;;;;6325137;22;20416;-96
2021/05/12 14:42:18;;;;;;;70.13;7.90;;;;;;;;;;6326612;22;20400;-96
2021/05/12 14:44:49;;;;;;;5.50;3.40;;;;;;;;;;6326354;22;20404;-96
2021/05/12 14:47:22;;;;;;;3.50;3.20;;;;;;;;;;6326841;22;20404;-96
2021/05/12 14:50:03;;;;;;;5.13;3.60;;;;;;;;;;6325522;22;20519;-96
2021/05/12 14:52:35;;;;;;;3.83;3.53;;;;;;;;;;6326101;22;20448;-96
2021/05/12 14:55:24;;;;;;;3.50;3.10;;;;;;;;;;6324482;22;20422;-96
2021/05/12 15:03:54;;;;;;;4.50;3.40;;;;;;;;;;6326687;22;20466;-95
2021/05/12 15:06:25;;;;;;;4.30;3.30;;;;;;;;;;6302862;22;20416;-95
2021/05/12 15:11:52;;;;;;;6.20;3.77;;;;;;;;;;6298433;22;20447;-96
2021/05/12 15:17:03;;;;;;;4.23;3.60;;;;;;;;;;6238335;23;20484;-96
2021/05/12 15:19:34;;;;;;;4.00;3.57;;;;;;;;;;6299145;22;20442;-96
2021/05/12 15:22:01;;;;;;;3.53;3.33;;;;;;;;;;6296817;22;20408;-95
2021/05/12 15:24:27;;;;;;;3.97;3.60;;;;;;;;;;6323063;22;20419;-95
2021/05/12 15:27:03;;;;;;;4.47;3.90;;;;;;;;;;6328048;22;20404;-95
2021/05/12 15:29:32;;;;;;;3.40;3.10;;;;;;;;;;6323415;22;20416;-96
2021/05/12 15:32:00;;;;;;;5.70;3.57;;;;;;;;;;6323030;22;20433;-96
2021/05/12 15:34:29;;;;;;;4.00;3.53;;;;;;;;;;6322216;22;20545;-96
2021/05/12 15:39:38;;;;;;;5.87;3.80;;;;;;;;;;6325258;22;20408;-94
2021/05/12 15:42:04;;;;;;;4.00;3.70;;;;;;;;;;6321968;22;20428;-95
2021/05/12 15:49:54;;;;;;;4.30;4.00;;;;;;;;;;6320445;22;20400;-95
2021/05/12 15:52:20;;;;;;;7.63;3.40;;;;;;;;;;6323947;22;20401;-96
2021/05/12 15:54:49;;;;;;;3.53;3.27;;;;;;;;;;6323683;22;20436;-96
2021/05/12 15:57:25;;;;;;;4.60;3.80;;;;;;;;;;6321492;22;20419;-96
2021/05/12 15:59:51;;;;;;;5.23;3.77;;;;;;;;;;6329511;22;20396;-96
2021/05/12 16:02:19;;;;;;;3.97;3.57;;;;;;;;;;6329518;22;20416;-95
2021/05/12 16:04:45;;;;;;;5.43;3.60;;;;;;;;;;6324687;22;20420;-95
2021/05/12 16:07:16;;;;;;;4.43;3.80;;;;;;;;;;6326767;22;20392;-95
2021/05/12 16:09:52;;;;;;;3.97;3.67;;;;;;;;;;6324433;22;20438;-96
2021/05/12 16:12:23;;;;;;;3.80;3.50;;;;;;;;;;6323610;22;20411;-96
2021/05/12 16:14:54;;;;;;;4.50;4.10;;;;;;;;;;6321320;22;20440;-95
2021/05/12 16:17:21;;;;;;;5.63;3.80;;;;;;;;;;6323223;22;20391;-95
2021/05/12 16:19:49;;;;;;;4.60;3.83;;;;;;;;;;6325009;22;20443;-95
2021/05/12 16:22:18;;;;;;;3.97;3.67;;;;;;;;;;6327667;22;20414;-96
2021/05/12 16:27:15;;;;;;;6.30;4.07;;;;;;;;;;6325345;22;20428;-96
2021/05/12 16:29:44;;;;;;;3.97;3.57;;;;;;;;;;6299503;22;20590;-96
2021/05/12 16:32:27;;;;;;;5.70;4.10;;;;;;;;;;6298885;22;20415;-96
2021/05/12 16:34:54;;;;;;;4.53;3.90;;;;;;;;;;6298209;22;20437;-96
2021/05/12 16:40:08;;;;;;;6.93;4.20;;;;;;;;;;6322415;22;20410;-95
2021/05/12 16:42:35;;;;;;;4.23;3.83;;;;;;;;;;6320604;22;20432;-96
2021/05/12 16:45:01;;;;;;;6.33;3.77;;;;;;;;;;6331570;22;20388;-96
2021/05/12 16:47:28;;;;;;;3.90;3.57;;;;;;;;;;6328438;22;20408;-96
2021/05/12 16:49:55;;;;;;;4.40;4.00;;;;;;;;;;6331251;22;20388;-96
2021/05/12 16:52:21;;;;;;;4.30;3.90;;;;;;;;;;6330197;22;20395;-96
2021/05/12 16:54:53;;;;;;;4.50;4.10;;;;;;;;;;6330583;22;20405;-96
2021/05/12 16:57:19;;;;;;;6.13;4.20;;;;;;;;;;6301221;22;20415;-96
2021/05/12 17:02:13;;;;;;;4.17;3.63;;;;;;;;;;6329133;22;20464;-96
2021/05/12 17:04:44;;;;;;;4.43;4.00;;;;;;;;;;6306696;22;20429;-96
2021/05/12 17:07:13;;;;;;;5.10;4.50;;;;;;;;;;6314478;22;20431;-96
2021/05/12 17:09:42;;;;;;;8.70;4.33;;;;;;;;;;6330085;22;20408;-96
2021/05/12 17:12:14;;;;;;;5.60;3.83;;;;;;;;;;6334121;22;20411;-96
2021/05/12 17:14:45;;;;;;;4.37;3.97;;;;;;;;;;6318359;22;21464;-96
2021/05/12 17:19:58;;;;;;;4.83;4.43;;;;;;;;;;6237639;22;20430;-96
2021/05/12 17:22:25;;;;;;;4.97;3.87;;;;;;;;;;6296055;22;20526;-96
2021/05/12 17:24:51;;;;;;;5.07;3.90;;;;;;;;;;6326389;22;20408;-96
2021/05/12 17:27:17;;;;;;;4.33;3.93;;;;;;;;;;6324311;22;20411;-96
2021/05/12 17:29:43;;;;;;;6.10;3.87;;;;;;;;;;6327229;22;20412;-96
2021/05/12 17:37:28;;;;;;;7.47;4.13;;;;;;;;;;6322893;22;20455;-95
2021/05/12 17:40:09;;;;;;;4.03;3.63;;;;;;;;;;6329195;22;20420;-95
2021/05/12 17:42:37;;;;;;;6.17;3.90;;;;;;;;;;6323811;22;20410;-96
2021/05/12 17:45:06;;;;;;;5.47;4.30;;;;;;;;;;6325068;22;20396;-96
2021/05/12 17:47:32;;;;;;;4.27;3.97;;;;;;;;;;6267775;23;20468;-96
2021/05/12 17:50:02;;;;;;;4.87;3.90;;;;;;;;;;6270084;22;20398;-95
2021/05/12 17:52:52;;;;;;;4.20;3.80;;;;;;;;;;6270519;23;20410;-96
2021/05/12 17:57:48;;;;;;;4.50;4.10;;;;;;;;;;6289253;22;20426;-96
2021/05/12 18:02:58;;;;;;;4.20;3.80;;;;;;;;;;6227775;22;20443;-95
2021/05/12 18:05:25;;;;;;;4.50;4.13;;;;;;;;;;6229340;23;20600;-93
2021/05/12 18:07:53;;;;;;;4.93;4.10;;;;;;;;;;6227696;23;20404;-96
2021/05/12 18:10:26;;;;;;;4.53;4.13;;;;;;;;;;6231966;23;20429;-95
2021/05/12 18:13:06;;;;;;;4.10;3.80;;;;;;;;;;6227836;23;20417;-95
2021/05/12 18:18:18;;;;;;;4.83;3.73;;;;;;;;;;6186598;23;20425;-94
2021/05/12 18:20:47;;;;;;;7.20;4.00;;;;;;;;;;6226220;23;20465;-96
2021/05/12 18:28:39;;;;;;;4.45;3.53;;;;;;;;;;6326593;22;20444;-96
2021/05/12 18:31:13;;;;;;;5.60;3.97;;;;;;;;;;6328824;22;20165;-96
2021/05/12 18:33:40;;;;;;;4.17;3.33;;;;;;;;;;6327475;22;20384;-95
2021/05/12 18:38:50;;;;;;;4.23;3.93;;;;;;;;;;6316457;22;20396;-96
2021/05/12 18:41:18;;;;;;;4.93;4.53;;;;;;;;;;6318989;22;20426;-96
2021/05/12 18:43:44;;;;;;;4.30;3.80;;;;;;;;;;6322595;22;20414;-96
2021/05/12 18:46:25;;;;;;;7.00;4.70;;;;;;;;;;6328426;22;20433;-96
2021/05/12 18:49:01;;;;;;;5.73;5.20;;;;;;;;;;6325036;22;20993;-96
2021/05/12 18:51:27;;;;;;;6.10;5.07;;;;;;;;;;6326177;22;20487;-96
2021/05/12 18:56:40;;;;;;;6.50;5.07;;;;;;;;;;6331277;22;20456;-96
2021/05/12 18:59:11;;;;;;;5.83;5.40;;;;;;;;;;6329613;22;20418;-96